Time;durP1;ratioP1;P1;durP2;ratioP2;P2;SDS_P1;SDS_P2;PMS_P1;PMS_P2;Temp;Humidity;BMP_temperature;BMP_pressure;BME280_temperature;BME280_humidity;BME280_pressure;Samples;Min_cycle;Max_cycle;Signal;HPM_P1;HPM_P2
2023/11/11 00:02:22;;;;;;;;;;;21.60;65.10;;;;;;5004568;28;1567;-68
2023/11/11 00:04:48;;;;;;;;;;;21.60;65.20;;;;;;5018033;28;1505;-67
2023/11/11 00:07:15;;;;;;;;;;;21.60;65.20;;;;;;5003373;28;1926;-68
2023/11/11 00:09:41;;;;;;;;;;;21.60;65.20;;;;;;5002486;28;1840;-69
2023/11/11 00:12:07;;;;;;;;;;;21.60;65.30;;;;;;5000267;28;1635;-69
2023/11/11 00:14:36;;;;;;;;;;;21.60;65.30;;;;;;5021359;28;1610;-69
2023/11/11 00:17:01;;;;;;;;;;;21.50;65.30;;;;;;5016252;28;1357;-69
2023/11/11 00:19:27;;;;;;;;;;;21.50;65.40;;;;;;5002086;28;1379;-69
2023/11/11 00:21:53;;;;;;;;;;;21.50;65.40;;;;;;5005125;28;1722;-69
2023/11/11 00:24:19;;;;;;;;;;;21.50;65.40;;;;;;5004638;28;1349;-69
2023/11/11 00:26:46;;;;;;;;;;;21.50;65.50;;;;;;5002189;28;1994;-69
2023/11/11 00:29:12;;;;;;;;;;;21.50;65.60;;;;;;5001045;28;1902;-69
2023/11/11 00:31:37;;;;;;;;;;;21.50;65.90;;;;;;5003012;28;1442;-69
2023/11/11 00:34:03;;;;;;;;;;;21.50;66.10;;;;;;5006365;28;1201;-69
2023/11/11 00:36:28;;;;;;;;;;;21.50;66.10;;;;;;5002505;28;1351;-69
2023/11/11 00:38:54;;;;;;;;;;;21.60;66.20;;;;;;4991091;28;1220;-68
2023/11/11 00:41:20;;;;;;;;;;;21.60;66.30;;;;;;5002631;28;1327;-69
2023/11/11 00:43:45;;;;;;;;;;;21.60;66.30;;;;;;5003371;28;1880;-69
2023/11/11 00:46:10;;;;;;;;;;;21.70;66.40;;;;;;5000326;28;1544;-68
2023/11/11 00:48:37;;;;;;;;;;;21.70;66.30;;;;;;4998751;28;1965;-69
2023/11/11 00:51:03;;;;;;;;;;;21.80;66.30;;;;;;5001388;28;1317;-69
2023/11/11 00:53:28;;;;;;;;;;;21.80;66.20;;;;;;5000679;28;1400;-68
2023/11/11 00:55:54;;;;;;;;;;;21.80;66.20;;;;;;5002277;28;1434;-69
2023/11/11 00:58:19;;;;;;;;;;;21.80;66.10;;;;;;5000625;28;1361;-69
2023/11/11 01:00:45;;;;;;;;;;;21.90;66.10;;;;;;4997970;28;1477;-68
2023/11/11 01:03:11;;;;;;;;;;;21.90;66.10;;;;;;5003575;28;1380;-69
2023/11/11 01:05:40;;;;;;;;;;;21.90;66.10;;;;;;5002141;28;1391;-69
2023/11/11 01:08:05;;;;;;;;;;;21.90;66.00;;;;;;5000884;28;1906;-69
2023/11/11 01:10:34;;;;;;;;;;;22.00;66.00;;;;;;5000332;28;1252;-69
2023/11/11 01:13:01;;;;;;;;;;;22.00;66.80;;;;;;5005484;28;1269;-69
2023/11/11 01:15:26;;;;;;;;;;;22.00;66.00;;;;;;4997739;28;1435;-69
2023/11/11 01:17:53;;;;;;;;;;;22.10;66.00;;;;;;5000940;28;1278;-69
2023/11/11 01:20:18;;;;;;;;;;;22.00;66.00;;;;;;5002384;28;1447;-69
2023/11/11 01:22:44;;;;;;;;;;;22.00;66.00;;;;;;5002421;28;1407;-69
2023/11/11 01:25:09;;;;;;;;;;;22.10;66.10;;;;;;5001392;28;1417;-69
2023/11/11 01:27:36;;;;;;;;;;;22.10;66.10;;;;;;5000266;28;1999;-69
2023/11/11 01:30:01;;;;;;;;;;;22.10;66.10;;;;;;5002232;28;1363;-69
2023/11/11 01:32:27;;;;;;;;;;;22.10;66.00;;;;;;5016713;28;1479;-69
2023/11/11 01:34:52;;;;;;;;;;;22.20;66.10;;;;;;5002336;28;1391;-69
2023/11/11 01:37:18;;;;;;;;;;;22.20;66.10;;;;;;5001819;28;1254;-68
2023/11/11 01:39:43;;;;;;;;;;;22.20;66.10;;;;;;5006704;28;1649;-69
2023/11/11 01:42:09;;;;;;;;;;;22.20;66.10;;;;;;5004040;28;1581;-68
2023/11/11 01:44:34;;;;;;;;;;;22.20;66.10;;;;;;5006485;28;1398;-68
2023/11/11 01:47:00;;;;;;;;;;;22.20;66.10;;;;;;5004867;28;1902;-69
2023/11/11 01:49:25;;;;;;;;;;;22.20;66.10;;;;;;5008754;28;1380;-68
2023/11/11 01:51:52;;;;;;;;;;;22.30;66.20;;;;;;5002771;28;1402;-69
2023/11/11 01:54:21;;;;;;;;;;;22.30;66.20;;;;;;5022771;28;1424;-68
2023/11/11 01:56:47;;;;;;;;;;;22.30;66.20;;;;;;5004065;28;1504;-68
2023/11/11 01:59:12;;;;;;;;;;;22.20;66.10;;;;;;5008978;28;1414;-69
2023/11/11 02:01:37;;;;;;;;;;;22.30;66.20;;;;;;5006202;28;1380;-69
2023/11/11 02:04:03;;;;;;;;;;;22.20;66.20;;;;;;5006442;28;1859;-68
2023/11/11 02:06:31;;;;;;;;;;;22.30;66.20;;;;;;5004679;28;1568;-68
2023/11/11 02:08:57;;;;;;;;;;;22.30;66.10;;;;;;5009489;28;1902;-68
2023/11/11 02:11:22;;;;;;;;;;;22.20;65.90;;;;;;5006344;28;1556;-68
2023/11/11 02:13:48;;;;;;;;;;;22.20;65.90;;;;;;5004563;28;1394;-68
2023/11/11 02:16:16;;;;;;;;;;;22.20;66.00;;;;;;4999507;28;1531;-68
2023/11/11 02:18:41;;;;;;;;;;;22.10;66.00;;;;;;5000265;28;1439;-68
2023/11/11 02:21:07;;;;;;;;;;;22.10;66.00;;;;;;5007906;28;1303;-68
2023/11/11 02:23:35;;;;;;;;;;;22.10;66.00;;;;;;5000720;28;1257;-67
2023/11/11 02:26:02;;;;;;;;;;;22.00;66.00;;;;;;5001138;28;1279;-68
2023/11/11 02:28:27;;;;;;;;;;;22.00;66.10;;;;;;5007443;28;1906;-68
2023/11/11 02:30:53;;;;;;;;;;;21.90;66.10;;;;;;5003510;28;1338;-68
2023/11/11 02:33:19;;;;;;;;;;;21.90;66.20;;;;;;5002613;28;1601;-68
2023/11/11 02:35:45;;;;;;;;;;;21.90;66.30;;;;;;4991167;28;1407;-68
2023/11/11 02:38:12;;;;;;;;;;;21.80;66.30;;;;;;5003053;28;1891;-68
2023/11/11 02:40:39;;;;;;;;;;;21.80;66.40;;;;;;5003587;28;1253;-67
2023/11/11 02:43:05;;;;;;;;;;;21.80;66.40;;;;;;5001850;28;1336;-68
2023/11/11 02:45:30;;;;;;;;;;;21.80;66.50;;;;;;5010160;28;955;-68
2023/11/11 02:47:55;;;;;;;;;;;21.70;66.50;;;;;;5001614;28;1894;-68
2023/11/11 02:50:21;;;;;;;;;;;21.70;66.60;;;;;;5005150;28;1191;-68
2023/11/11 02:52:46;;;;;;;;;;;21.70;66.70;;;;;;5004528;28;1280;-68
2023/11/11 02:55:12;;;;;;;;;;;21.70;66.70;;;;;;5020706;28;1386;-68
2023/11/11 02:57:38;;;;;;;;;;;21.70;66.70;;;;;;5019903;28;1556;-68
2023/11/11 03:00:10;;;;;;;;;;;21.60;66.70;;;;;;5006131;28;1384;-67
2023/11/11 03:02:36;;;;;;;;;;;21.60;66.80;;;;;;5005727;28;1344;-68
2023/11/11 03:05:01;;;;;;;;;;;21.60;66.80;;;;;;5005524;28;1084;-68
2023/11/11 03:07:27;;;;;;;;;;;21.60;66.90;;;;;;5004260;28;1969;-68
2023/11/11 03:09:53;;;;;;;;;;;21.50;66.80;;;;;;5004685;28;1281;-68
2023/11/11 03:12:18;;;;;;;;;;;21.50;66.80;;;;;;5002300;28;1461;-68
2023/11/11 03:14:44;;;;;;;;;;;21.50;66.90;;;;;;5001990;28;1244;-68
2023/11/11 03:17:09;;;;;;;;;;;21.50;66.90;;;;;;5001104;28;1527;-68
2023/11/11 03:19:35;;;;;;;;;;;21.50;67.00;;;;;;5005069;28;1240;-68
2023/11/11 03:22:01;;;;;;;;;;;21.50;67.00;;;;;;5002462;28;1501;-68
2023/11/11 03:24:27;;;;;;;;;;;21.50;67.10;;;;;;5002196;28;1185;-67
2023/11/11 03:26:53;;;;;;;;;;;21.50;67.10;;;;;;4985073;28;1431;-67
2023/11/11 03:29:18;;;;;;;;;;;21.40;67.10;;;;;;5000919;28;1977;-67
2023/11/11 03:31:44;;;;;;;;;;;21.40;67.10;;;;;;5002758;28;1367;-67
2023/11/11 03:34:09;;;;;;;;;;;21.40;67.20;;;;;;5003128;28;1445;-68
2023/11/11 03:36:35;;;;;;;;;;;21.40;67.20;;;;;;5003278;28;1481;-68
2023/11/11 03:39:00;;;;;;;;;;;21.40;67.20;;;;;;5003916;28;1474;-67
2023/11/11 03:41:26;;;;;;;;;;;21.40;67.20;;;;;;5005022;28;1362;-67
2023/11/11 03:43:51;;;;;;;;;;;21.40;67.20;;;;;;5003098;28;1367;-67
2023/11/11 03:46:17;;;;;;;;;;;21.30;67.20;;;;;;5001489;28;1257;-67
2023/11/11 03:48:42;;;;;;;;;;;21.30;67.20;;;;;;5003830;28;1930;-67
2023/11/11 03:51:08;;;;;;;;;;;21.30;67.20;;;;;;5006896;28;1406;-67
2023/11/11 03:53:33;;;;;;;;;;;21.30;67.30;;;;;;5000647;28;1389;-67
2023/11/11 03:56:02;;;;;;;;;;;21.30;67.30;;;;;;5003351;28;1343;-67
2023/11/11 03:58:28;;;;;;;;;;;21.30;67.30;;;;;;4999875;28;1471;-67
2023/11/11 04:00:53;;;;;;;;;;;21.30;67.30;;;;;;5003937;28;1476;-67
2023/11/11 04:03:19;;;;;;;;;;;21.30;67.30;;;;;;5001173;28;1403;-67
2023/11/11 04:05:46;;;;;;;;;;;21.30;67.40;;;;;;5000713;28;1137;-67
2023/11/11 04:08:12;;;;;;;;;;;21.30;67.40;;;;;;5002376;28;1910;-67
2023/11/11 04:10:38;;;;;;;;;;;21.20;67.30;;;;;;5002958;28;1248;-67
2023/11/11 04:13:03;;;;;;;;;;;21.30;67.50;;;;;;4996204;28;1480;-68
2023/11/11 04:15:31;;;;;;;;;;;21.20;67.40;;;;;;4999928;28;1614;-68
2023/11/11 04:17:57;;;;;;;;;;;21.20;67.40;;;;;;4998603;28;1481;-68
2023/11/11 04:20:22;;;;;;;;;;;21.20;67.40;;;;;;5003330;28;1450;-68
2023/11/11 04:22:48;;;;;;;;;;;21.20;67.40;;;;;;5002004;28;1450;-68
2023/11/11 04:25:13;;;;;;;;;;;21.20;67.40;;;;;;5005765;28;1281;-68
2023/11/11 04:27:40;;;;;;;;;;;21.20;67.40;;;;;;5002516;28;1970;-67
2023/11/11 04:30:06;;;;;;;;;;;21.20;67.50;;;;;;5019215;28;1186;-67
2023/11/11 04:32:35;;;;;;;;;;;21.20;67.50;;;;;;5002015;28;1363;-68
2023/11/11 04:35:01;;;;;;;;;;;21.20;67.50;;;;;;5016049;28;1451;-68
2023/11/11 04:37:26;;;;;;;;;;;21.20;68.30;;;;;;5000739;28;1315;-67
2023/11/11 04:39:57;;;;;;;;;;;21.20;67.50;;;;;;5003010;28;1471;-67
2023/11/11 04:42:35;;;;;;;;;;;21.10;67.50;;;;;;5016004;28;1498;-68
2023/11/11 04:45:01;;;;;;;;;;;21.10;67.50;;;;;;4999447;28;1449;-66
2023/11/11 04:47:26;;;;;;;;;;;21.20;67.60;;;;;;5003913;28;1898;-69
2023/11/11 04:49:52;;;;;;;;;;;21.10;67.50;;;;;;5001154;28;1497;-68
2023/11/11 04:52:17;;;;;;;;;;;21.10;67.50;;;;;;5002309;28;1326;-68
2023/11/11 04:54:43;;;;;;;;;;;21.10;67.50;;;;;;5002621;28;1268;-68
2023/11/11 04:57:09;;;;;;;;;;;21.10;67.60;;;;;;5000451;28;1477;-68
2023/11/11 04:59:34;;;;;;;;;;;21.10;68.30;;;;;;5002910;28;1323;-68
2023/11/11 05:02:01;;;;;;;;;;;21.10;67.60;;;;;;5002392;28;1363;-68
2023/11/11 05:04:27;;;;;;;;;;;21.10;67.60;;;;;;5001040;28;1239;-68
2023/11/11 05:06:52;;;;;;;;;;;21.10;67.60;;;;;;5001081;28;1505;-67
2023/11/11 05:09:22;;;;;;;;;;;21.10;67.60;;;;;;5002284;28;1906;-68
2023/11/11 05:11:48;;;;;;;;;;;21.10;67.60;;;;;;5001286;28;1306;-67
2023/11/11 05:14:17;;;;;;;;;;;21.10;67.60;;;;;;5002908;28;1331;-67
2023/11/11 05:16:50;;;;;;;;;;;21.10;67.60;;;;;;4995443;28;1491;-67
2023/11/11 05:19:15;;;;;;;;;;;21.10;67.60;;;;;;5000009;28;1388;-67
2023/11/11 05:21:42;;;;;;;;;;;21.10;67.60;;;;;;5004064;28;1363;-67
2023/11/11 05:24:08;;;;;;;;;;;21.10;67.50;;;;;;5002104;28;1462;-67
2023/11/11 05:26:33;;;;;;;;;;;21.10;67.40;;;;;;5000094;28;1260;-67
2023/11/11 05:28:59;;;;;;;;;;;21.20;67.40;;;;;;5001630;28;1899;-67
2023/11/11 05:31:31;;;;;;;;;;;21.20;67.30;;;;;;5000484;28;1455;-67
2023/11/11 05:34:00;;;;;;;;;;;21.10;67.20;;;;;;4999205;28;1123;-68
2023/11/11 05:36:27;;;;;;;;;;;21.20;67.20;;;;;;5001170;28;1016;-68
2023/11/11 05:38:55;;;;;;;;;;;21.20;67.10;;;;;;5003036;28;1109;-68
2023/11/11 05:41:21;;;;;;;;;;;21.20;67.00;;;;;;5016674;28;1371;-68
2023/11/11 05:43:47;;;;;;;;;;;21.20;67.00;;;;;;5000287;28;930;-68
2023/11/11 05:46:12;;;;;;;;;;;21.20;66.90;;;;;;4999319;28;1051;-68
2023/11/11 05:48:42;;;;;;;;;;;21.20;66.90;;;;;;5001587;28;1906;-67
2023/11/11 05:51:08;;;;;;;;;;;21.20;66.90;;;;;;4998336;28;1471;-68
2023/11/11 05:53:34;;;;;;;;;;;21.20;66.80;;;;;;5004395;28;1461;-67
2023/11/11 05:55:59;;;;;;;;;;;21.30;66.80;;;;;;5002146;28;1400;-68
2023/11/11 05:58:25;;;;;;;;;;;21.20;66.80;;;;;;5000221;28;1293;-68
2023/11/11 06:00:50;;;;;;;;;;;21.30;66.80;;;;;;5003161;28;1069;-68
2023/11/11 06:03:16;;;;;;;;;;;21.30;66.80;;;;;;5000821;28;1580;-67
2023/11/11 06:05:41;;;;;;;;;;;21.30;66.80;;;;;;5001095;28;1646;-67
2023/11/11 06:08:09;;;;;;;;;;;21.30;66.70;;;;;;5002277;28;1902;-68
2023/11/11 06:10:35;;;;;;;;;;;21.30;66.70;;;;;;5003692;28;1615;-68
2023/11/11 06:13:01;;;;;;;;;;;21.30;67.40;;;;;;5000418;28;1701;-68
2023/11/11 06:15:26;;;;;;;;;;;21.30;66.60;;;;;;5000663;28;1457;-68
2023/11/11 06:17:52;;;;;;;;;;;21.30;66.60;;;;;;5002299;28;1391;-68
2023/11/11 06:20:17;;;;;;;;;;;21.30;66.60;;;;;;5003561;28;1747;-68
2023/11/11 06:22:43;;;;;;;;;;;21.30;66.50;;;;;;5000520;28;1697;-68
2023/11/11 06:25:08;;;;;;;;;;;21.30;66.50;;;;;;5004793;28;1353;-68
2023/11/11 06:27:34;;;;;;;;;;;21.30;66.50;;;;;;5006251;28;1906;-68
2023/11/11 06:30:00;;;;;;;;;;;21.30;66.50;;;;;;5004944;28;1455;-68
2023/11/11 06:32:26;;;;;;;;;;;21.30;66.50;;;;;;5007269;28;1343;-68
2023/11/11 06:34:51;;;;;;;;;;;21.30;66.50;;;;;;5000091;28;1512;-68
2023/11/11 06:37:17;;;;;;;;;;;21.30;66.40;;;;;;5001489;28;1302;-68
2023/11/11 06:39:42;;;;;;;;;;;21.30;66.40;;;;;;5009265;28;1493;-68
2023/11/11 06:42:08;;;;;;;;;;;21.30;66.40;;;;;;5003536;28;1345;-68
2023/11/11 06:44:33;;;;;;;;;;;21.30;66.40;;;;;;5010573;28;1365;-68
2023/11/11 06:46:59;;;;;;;;;;;21.30;66.40;;;;;;5006320;28;1380;-68
2023/11/11 06:49:24;;;;;;;;;;;21.30;66.40;;;;;;5001487;28;1949;-68
2023/11/11 06:51:50;;;;;;;;;;;21.30;66.40;;;;;;5006469;28;1460;-68
2023/11/11 06:54:15;;;;;;;;;;;21.30;66.40;;;;;;5004401;28;1874;-68
2023/11/11 06:56:41;;;;;;;;;;;21.30;66.40;;;;;;5017047;28;1520;-68
2023/11/11 06:59:09;;;;;;;;;;;21.30;66.40;;;;;;5018228;28;1348;-68
2023/11/11 07:01:35;;;;;;;;;;;21.30;66.10;;;;;;5005668;28;1391;-68
2023/11/11 07:04:01;;;;;;;;;;;21.30;60.80;;;;;;5005934;28;1317;-68
2023/11/11 07:06:26;;;;;;;;;;;21.30;58.00;;;;;;5004295;28;1345;-68
2023/11/11 07:08:52;;;;;;;;;;;21.20;59.50;;;;;;5004830;28;1910;-69
2023/11/11 07:11:17;;;;;;;;;;;21.20;59.90;;;;;;5008441;28;1348;-68
2023/11/11 07:13:46;;;;;;;;;;;21.20;60.20;;;;;;5003782;28;1297;-69
2023/11/11 07:16:17;;;;;;;;;;;21.20;60.40;;;;;;4995597;28;1928;-68
2023/11/11 07:18:45;;;;;;;;;;;21.20;60.80;;;;;;5001517;28;1247;-68
2023/11/11 07:21:21;;;;;;;;;;;21.20;61.10;;;;;;5004676;28;1144;-68
2023/11/11 07:23:47;;;;;;;;;;;21.20;61.40;;;;;;5003198;28;910;-68
2023/11/11 07:26:15;;;;;;;;;;;21.20;61.80;;;;;;5004180;28;1281;-68
2023/11/11 07:28:42;;;;;;;;;;;21.20;61.90;;;;;;5003428;28;1914;-69
2023/11/11 07:31:08;;;;;;;;;;;21.20;62.30;;;;;;5001288;28;1487;-68
2023/11/11 07:33:34;;;;;;;;;;;21.10;62.50;;;;;;5007187;28;1379;-69
2023/11/11 07:36:00;;;;;;;;;;;21.20;62.80;;;;;;5000581;28;1265;-70
2023/11/11 07:38:25;;;;;;;;;;;21.20;62.90;;;;;;5002622;28;1561;-69
2023/11/11 07:40:51;;;;;;;;;;;21.10;63.00;;;;;;5002286;28;1391;-70
2023/11/11 07:43:17;;;;;;;;;;;21.10;63.20;;;;;;5002293;28;1371;-69
2023/11/11 07:45:42;;;;;;;;;;;21.10;63.50;;;;;;5002464;28;1383;-69
2023/11/11 07:48:08;;;;;;;;;;;21.10;63.60;;;;;;5000748;28;1970;-69
2023/11/11 07:50:33;;;;;;;;;;;21.10;63.70;;;;;;4998962;28;1394;-70
2023/11/11 07:52:59;;;;;;;;;;;21.10;63.80;;;;;;5003289;28;1367;-69
2023/11/11 07:55:24;;;;;;;;;;;21.10;63.90;;;;;;5000922;28;4065;-67
2023/11/11 07:57:50;;;;;;;;;;;21.10;64.10;;;;;;5005404;28;3937;-67
2023/11/11 08:00:18;;;;;;;;;;;21.10;64.20;;;;;;5005079;28;1264;-67
2023/11/11 08:02:49;;;;;;;;;;;21.10;64.30;;;;;;5003314;28;1959;-68
2023/11/11 08:05:16;;;;;;;;;;;21.10;64.40;;;;;;4998704;28;1486;-68
2023/11/11 08:07:41;;;;;;;;;;;21.10;64.50;;;;;;4995791;28;5336;-68
2023/11/11 08:10:07;;;;;;;;;;;21.00;64.50;;;;;;5000680;28;4197;-68
2023/11/11 08:12:33;;;;;;;;;;;21.10;64.60;;;;;;5003416;28;1362;-68
2023/11/11 08:15:00;;;;;;;;;;;21.10;64.50;;;;;;5003035;28;1337;-67
2023/11/11 08:17:25;;;;;;;;;;;21.10;64.50;;;;;;5002019;28;1323;-68
2023/11/11 08:19:51;;;;;;;;;;;21.20;64.60;;;;;;5005548;28;1586;-68
2023/11/11 08:22:16;;;;;;;;;;;21.20;64.50;;;;;;5001503;28;1331;-66
2023/11/11 08:24:42;;;;;;;;;;;21.20;64.40;;;;;;5000751;28;1645;-65
2023/11/11 08:27:08;;;;;;;;;;;21.30;64.40;;;;;;4999219;28;1405;-67
2023/11/11 08:29:34;;;;;;;;;;;21.30;64.30;;;;;;5004333;28;1969;-67
2023/11/11 08:31:59;;;;;;;;;;;21.40;64.30;;;;;;5001013;28;1980;-67
2023/11/11 08:34:29;;;;;;;;;;;21.40;64.10;;;;;;5006302;28;1292;-67
2023/11/11 08:36:58;;;;;;;;;;;21.50;64.00;;;;;;5000936;28;1358;-67
2023/11/11 08:39:24;;;;;;;;;;;21.50;64.00;;;;;;5004653;28;1438;-67
2023/11/11 08:41:50;;;;;;;;;;;21.50;63.80;;;;;;5001344;28;1371;-67
2023/11/11 08:44:15;;;;;;;;;;;21.50;63.70;;;;;;4990959;28;1244;-67
2023/11/11 08:46:41;;;;;;;;;;;21.60;63.70;;;;;;5000225;28;1226;-67
2023/11/11 08:49:07;;;;;;;;;;;21.60;63.60;;;;;;5006093;28;1898;-67
2023/11/11 08:51:32;;;;;;;;;;;21.60;63.60;;;;;;5002203;28;1336;-67
2023/11/11 08:54:00;;;;;;;;;;;21.60;63.50;;;;;;5001703;28;1086;-67
2023/11/11 08:56:28;;;;;;;;;;;21.60;63.50;;;;;;5000468;28;875;-67
2023/11/11 08:58:55;;;;;;;;;;;21.60;63.40;;;;;;5003480;28;923;-67
2023/11/11 09:01:21;;;;;;;;;;;21.60;63.30;;;;;;5002867;28;1395;-67
2023/11/11 09:03:49;;;;;;;;;;;21.70;63.40;;;;;;5002350;28;868;-67
2023/11/11 09:06:18;;;;;;;;;;;21.70;63.40;;;;;;5002786;28;1402;-67
2023/11/11 09:08:43;;;;;;;;;;;21.70;63.30;;;;;;5000956;28;1910;-67
2023/11/11 09:11:12;;;;;;;;;;;21.70;63.30;;;;;;5002924;28;1176;-67
2023/11/11 09:13:38;;;;;;;;;;;21.70;63.40;;;;;;5000790;28;1470;-67
2023/11/11 09:16:04;;;;;;;;;;;21.70;63.30;;;;;;5000096;28;1612;-67
2023/11/11 09:18:30;;;;;;;;;;;21.70;63.30;;;;;;4998884;28;1444;-67
2023/11/11 09:20:55;;;;;;;;;;;21.70;63.40;;;;;;5000398;28;1427;-67
2023/11/11 09:23:21;;;;;;;;;;;21.70;63.40;;;;;;5003088;28;1354;-67
2023/11/11 09:25:46;;;;;;;;;;;21.70;63.40;;;;;;5000523;28;1450;-67
2023/11/11 09:28:12;;;;;;;;;;;21.70;63.40;;;;;;5001013;28;1902;-67
2023/11/11 09:30:38;;;;;;;;;;;21.70;63.40;;;;;;5001893;28;1468;-67
2023/11/11 09:33:04;;;;;;;;;;;21.70;63.40;;;;;;5004727;28;1376;-67
2023/11/11 09:35:30;;;;;;;;;;;21.70;63.40;;;;;;5000255;28;1527;-67
2023/11/11 09:37:56;;;;;;;;;;;21.70;63.40;;;;;;4997550;28;1477;-67
2023/11/11 09:40:21;;;;;;;;;;;21.60;63.40;;;;;;5005327;28;1468;-67
2023/11/11 09:42:47;;;;;;;;;;;21.70;63.50;;;;;;5000840;28;1387;-67
2023/11/11 09:45:14;;;;;;;;;;;21.60;63.50;;;;;;5001522;28;1169;-67
2023/11/11 09:47:40;;;;;;;;;;;21.60;63.50;;;;;;5000931;28;1968;-67
2023/11/11 09:50:06;;;;;;;;;;;21.60;63.60;;;;;;5000179;28;1495;-67
2023/11/11 09:52:31;;;;;;;;;;;21.60;63.60;;;;;;5001707;28;1473;-67
2023/11/11 09:55:01;;;;;;;;;;;21.60;63.60;;;;;;4996830;28;1559;-67
2023/11/11 09:57:29;;;;;;;;;;;21.60;63.60;;;;;;5013460;28;1487;-67
2023/11/11 09:59:55;;;;;;;;;;;21.60;63.70;;;;;;5002918;28;1588;-67
2023/11/11 10:02:21;;;;;;;;;;;21.60;63.70;;;;;;5007481;28;1693;-67
2023/11/11 10:04:46;;;;;;;;;;;21.60;63.80;;;;;;5005582;28;1457;-67
2023/11/11 10:07:12;;;;;;;;;;;21.60;63.80;;;;;;5009448;28;1615;-66
2023/11/11 10:09:38;;;;;;;;;;;21.60;63.80;;;;;;5008000;28;1902;-67
2023/11/11 10:12:04;;;;;;;;;;;21.60;63.90;;;;;;5003800;28;1356;-67
2023/11/11 10:14:32;;;;;;;;;;;21.60;63.90;;;;;;5006678;28;1157;-67
2023/11/11 10:16:59;;;;;;;;;;;21.60;63.90;;;;;;5007829;28;1326;-67
2023/11/11 10:19:26;;;;;;;;;;;21.50;63.90;;;;;;5021416;28;1465;-67
2023/11/11 10:21:57;;;;;;;;;;;21.50;63.90;;;;;;5006088;28;1347;-67
2023/11/11 10:24:25;;;;;;;;;;;21.50;63.90;;;;;;5004371;28;1439;-67
2023/11/11 10:26:52;;;;;;;;;;;21.50;64.00;;;;;;5004262;28;1528;-67
2023/11/11 10:29:17;;;;;;;;;;;21.50;64.00;;;;;;5002741;28;1915;-67
2023/11/11 10:31:43;;;;;;;;;;;21.50;64.00;;;;;;5005426;28;1435;-67
2023/11/11 10:34:08;;;;;;;;;;;21.50;64.10;;;;;;5004876;28;1374;-67
2023/11/11 10:36:42;;;;;;;;;;;21.50;64.10;;;;;;5003368;28;1379;-67
2023/11/11 10:39:09;;;;;;;;;;;21.50;64.10;;;;;;5004883;28;1936;-67
2023/11/11 10:41:35;;;;;;;;;;;21.50;64.10;;;;;;5005217;28;1281;-66
2023/11/11 10:44:01;;;;;;;;;;;21.50;64.20;;;;;;5002687;28;1355;-64
2023/11/11 10:46:26;;;;;;;;;;;21.50;64.20;;;;;;5020151;28;1514;-65
2023/11/11 10:48:52;;;;;;;;;;;21.50;64.20;;;;;;5004653;28;1910;-66
2023/11/11 10:51:17;;;;;;;;;;;21.50;64.20;;;;;;5009575;28;1531;-66
2023/11/11 10:53:43;;;;;;;;;;;21.50;64.20;;;;;;5006303;28;1358;-66
2023/11/11 10:56:08;;;;;;;;;;;21.50;64.20;;;;;;5005592;28;1433;-68
2023/11/11 10:58:34;;;;;;;;;;;21.50;64.10;;;;;;5005510;28;1508;-67
2023/11/11 11:01:00;;;;;;;;;;;21.50;64.10;;;;;;5004488;28;1839;-65
2023/11/11 11:03:26;;;;;;;;;;;21.50;64.10;;;;;;5004928;28;1415;-66
2023/11/11 11:05:55;;;;;;;;;;;21.60;64.10;;;;;;5001348;28;1563;-66
2023/11/11 11:08:23;;;;;;;;;;;21.60;64.00;;;;;;5017307;28;1954;-64
2023/11/11 11:10:51;;;;;;;;;;;21.60;64.00;;;;;;5000508;28;1339;-66
2023/11/11 11:13:18;;;;;;;;;;;21.60;63.90;;;;;;5006659;28;1395;-68
2023/11/11 11:15:44;;;;;;;;;;;21.70;63.90;;;;;;5001886;28;1279;-67
2023/11/11 11:18:12;;;;;;;;;;;21.70;63.80;;;;;;5006645;28;1262;-66
2023/11/11 11:20:40;;;;;;;;;;;21.70;63.70;;;;;;5022045;28;1590;-66
2023/11/11 11:23:07;;;;;;;;;;;21.80;63.70;;;;;;5002238;28;1367;-66
2023/11/11 11:25:33;;;;;;;;;;;21.80;63.60;;;;;;5005140;28;2129;-67
2023/11/11 11:28:21;;;;;;;;;;;21.80;63.60;;;;;;5003928;28;1931;-68
2023/11/11 11:30:47;;;;;;;;;;;21.80;63.50;;;;;;5002191;28;1358;-67
2023/11/11 11:33:14;;;;;;;;;;;21.80;63.50;;;;;;5002626;28;1197;-67
2023/11/11 11:35:43;;;;;;;;;;;21.80;63.50;;;;;;5005143;28;1474;-67
2023/11/11 11:38:09;;;;;;;;;;;21.80;63.40;;;;;;5004011;28;1443;-67
2023/11/11 11:40:34;;;;;;;;;;;21.80;63.40;;;;;;5003841;28;1459;-66
2023/11/11 11:43:00;;;;;;;;;;;21.80;63.40;;;;;;5001008;28;1478;-66
2023/11/11 11:45:29;;;;;;;;;;;21.80;63.40;;;;;;5015865;28;1603;-65
2023/11/11 11:47:54;;;;;;;;;;;21.80;63.40;;;;;;4998825;28;1902;-66
2023/11/11 11:50:20;;;;;;;;;;;21.80;63.40;;;;;;5002717;28;1613;-65
2023/11/11 11:52:46;;;;;;;;;;;21.80;63.40;;;;;;5004347;28;1408;-68
2023/11/11 11:55:12;;;;;;;;;;;21.80;63.40;;;;;;5003276;28;1379;-68
2023/11/11 11:57:56;;;;;;;;;;;21.80;63.50;;;;;;5003899;28;1934;-68
2023/11/11 12:00:21;;;;;;;;;;;21.80;63.50;;;;;;5004153;28;2069;-68
2023/11/11 12:02:47;;;;;;;;;;;21.80;63.40;;;;;;5001014;28;1920;-67
2023/11/11 12:05:13;;;;;;;;;;;21.80;63.50;;;;;;5003688;28;1158;-67
2023/11/11 12:07:38;;;;;;;;;;;21.80;63.50;;;;;;5004310;28;1898;-66
2023/11/11 12:10:08;;;;;;;;;;;21.80;63.50;;;;;;5005672;28;1217;-66
2023/11/11 12:12:34;;;;;;;;;;;21.80;63.60;;;;;;5004275;28;1210;-66
2023/11/11 12:14:59;;;;;;;;;;;21.80;63.60;;;;;;5002860;28;984;-66
2023/11/11 12:17:25;;;;;;;;;;;21.80;63.60;;;;;;5000642;28;1325;-67
2023/11/11 12:19:53;;;;;;;;;;;21.80;63.60;;;;;;5001765;28;1485;-67
2023/11/11 12:22:19;;;;;;;;;;;21.70;63.60;;;;;;5002145;28;1295;-67
2023/11/11 12:24:44;;;;;;;;;;;21.70;63.70;;;;;;5000126;28;1505;-68
2023/11/11 12:27:10;;;;;;;;;;;21.70;63.70;;;;;;5003449;28;1243;-67
2023/11/11 12:29:42;;;;;;;;;;;21.70;63.70;;;;;;5005028;28;1931;-67
2023/11/11 12:32:13;;;;;;;;;;;21.70;63.70;;;;;;5018005;28;1866;-67
2023/11/11 12:34:39;;;;;;;;;;;21.70;63.80;;;;;;5000999;28;1592;-67
2023/11/11 12:37:05;;;;;;;;;;;21.70;63.80;;;;;;4999998;28;1948;-67
2023/11/11 12:39:32;;;;;;;;;;;21.70;63.80;;;;;;5000516;28;1361;-67
2023/11/11 12:41:57;;;;;;;;;;;21.70;63.80;;;;;;5003188;28;1368;-67
2023/11/11 12:44:23;;;;;;;;;;;21.70;63.90;;;;;;5005628;28;1708;-66
2023/11/11 12:46:49;;;;;;;;;;;21.70;63.90;;;;;;4999032;28;1291;-67
2023/11/11 12:49:18;;;;;;;;;;;21.70;64.00;;;;;;5006600;28;1977;-66
2023/11/11 12:51:44;;;;;;;;;;;21.70;64.00;;;;;;5002213;28;1541;-67
2023/11/11 12:54:10;;;;;;;;;;;21.60;64.00;;;;;;5001127;28;1463;-67
2023/11/11 12:56:46;;;;;;;;;;;21.60;64.00;;;;;;5005561;28;1540;-68
2023/11/11 12:59:11;;;;;;;;;;;21.60;64.00;;;;;;4981621;28;1499;-67
2023/11/11 13:01:37;;;;;;;;;;;21.60;64.00;;;;;;4991218;28;1328;-67
2023/11/11 13:04:12;;;;;;;;;;;21.60;64.10;;;;;;5001021;28;1247;-67
2023/11/11 13:06:38;;;;;;;;;;;21.60;64.00;;;;;;5000097;28;1423;-67
2023/11/11 13:09:11;;;;;;;;;;;21.60;64.10;;;;;;5005608;28;1906;-68
2023/11/11 13:11:37;;;;;;;;;;;21.60;64.10;;;;;;5002046;28;1373;-68
2023/11/11 13:14:04;;;;;;;;;;;21.60;64.10;;;;;;5004037;28;1316;-68
2023/11/11 13:16:29;;;;;;;;;;;21.60;64.10;;;;;;5002486;28;1111;-68
2023/11/11 13:18:55;;;;;;;;;;;21.60;64.00;;;;;;5004879;28;1407;-68
2023/11/11 13:21:26;;;;;;;;;;;21.60;64.10;;;;;;4998870;28;1473;-68
2023/11/11 13:23:52;;;;;;;;;;;21.60;64.10;;;;;;5001623;28;1276;-67
2023/11/11 13:26:18;;;;;;;;;;;21.60;64.30;;;;;;5004203;28;1269;-66
2023/11/11 13:28:43;;;;;;;;;;;21.60;64.20;;;;;;5002651;28;1906;-66
2023/11/11 13:31:09;;;;;;;;;;;21.60;64.20;;;;;;5000323;28;1575;-66
2023/11/11 13:33:35;;;;;;;;;;;21.60;64.20;;;;;;5018613;28;1464;-67
2023/11/11 13:36:09;;;;;;;;;;;21.60;64.30;;;;;;5002698;28;1352;-67
2023/11/11 13:38:35;;;;;;;;;;;21.60;64.30;;;;;;5008160;28;1237;-67
2023/11/11 13:41:01;;;;;;;;;;;21.60;64.30;;;;;;5006151;28;1129;-67
2023/11/11 13:43:26;;;;;;;;;;;21.60;64.30;;;;;;5005605;28;1339;-67
2023/11/11 13:45:52;;;;;;;;;;;21.60;64.30;;;;;;5004988;28;1465;-67
2023/11/11 13:48:18;;;;;;;;;;;21.60;64.30;;;;;;5000270;28;2001;-67
2023/11/11 13:50:43;;;;;;;;;;;21.60;64.30;;;;;;4998470;28;1509;-66
2023/11/11 13:53:09;;;;;;;;;;;21.60;64.30;;;;;;5002425;28;1799;-65
2023/11/11 13:55:37;;;;;;;;;;;21.60;64.30;;;;;;4998582;28;1442;-66
2023/11/11 13:58:02;;;;;;;;;;;21.60;64.20;;;;;;5001098;28;1250;-65
2023/11/11 14:00:28;;;;;;;;;;;21.70;64.30;;;;;;5003741;28;1543;-67
2023/11/11 14:02:55;;;;;;;;;;;21.70;64.20;;;;;;4999357;28;1415;-67
2023/11/11 14:05:22;;;;;;;;;;;21.70;64.20;;;;;;4997654;28;1516;-67
2023/11/11 14:07:48;;;;;;;;;;;21.70;64.10;;;;;;5000122;28;1910;-67
2023/11/11 14:10:16;;;;;;;;;;;21.70;64.00;;;;;;4998834;28;1576;-67
2023/11/11 14:12:43;;;;;;;;;;;21.80;64.00;;;;;;5001352;28;1257;-67
2023/11/11 14:15:13;;;;;;;;;;;21.80;63.90;;;;;;4999032;28;1474;-67
2023/11/11 14:17:39;;;;;;;;;;;21.80;63.90;;;;;;4998836;28;1353;-68
2023/11/11 14:20:05;;;;;;;;;;;21.80;63.90;;;;;;4999801;28;1855;-67
2023/11/11 14:22:31;;;;;;;;;;;21.80;63.80;;;;;;5001326;28;2104;-67
2023/11/11 14:24:57;;;;;;;;;;;21.80;63.90;;;;;;5001466;28;1375;-67
2023/11/11 14:27:22;;;;;;;;;;;21.80;64.30;;;;;;5000370;28;1362;-66